Time;durP1;ratioP1;P1;durP2;ratioP2;P2;SDS_P1;SDS_P2;PMS_P1;PMS_P2;Temp;Humidity;BMP_temperature;BMP_pressure;BME280_temperature;BME280_humidity;BME280_pressure;Samples;Min_cycle;Max_cycle;Signal;HPM_P1;HPM_P2
2023/10/20 00:00:39;;;;;;;;;;;;;;;12.19;50.10;98517.59;5002285;27;97969;-71
2023/10/20 00:03:08;;;;;;;;;;;;;;;12.19;50.11;98506.78;4982794;27;98177;-64
2023/10/20 00:05:35;;;;;;;;;;;;;;;12.19;49.98;98487.09;4967216;27;98249;-71
2023/10/20 00:08:02;;;;;;;;;;;;;;;12.18;50.08;98494.41;4986748;27;98396;-71
2023/10/20 00:10:34;;;;;;;;;;;;;;;12.18;50.08;98497.09;5003531;27;99616;-64
2023/10/20 00:13:03;;;;;;;;;;;;;;;12.18;50.14;98499.00;4957206;27;98456;-64
2023/10/20 00:15:29;;;;;;;;;;;;;;;12.18;50.21;98505.22;4965350;27;98328;-71
2023/10/20 00:17:55;;;;;;;;;;;;;;;12.17;50.05;98503.59;4995988;27;100149;-71
2023/10/20 00:20:22;;;;;;;;;;;;;;;12.17;50.20;98498.19;4998346;27;98997;-64
2023/10/20 00:22:49;;;;;;;;;;;;;;;12.16;49.98;98501.25;4986504;27;100073;-64
2023/10/20 00:25:15;;;;;;;;;;;;;;;12.16;50.08;98502.03;4977750;27;99615;-71
2023/10/20 00:27:42;;;;;;;;;;;;;;;12.17;50.11;98508.22;4997900;27;99633;-71
2023/10/20 00:30:09;;;;;;;;;;;;;;;12.17;50.06;98505.50;4986227;27;100185;-71
2023/10/20 00:32:40;;;;;;;;;;;;;;;12.17;50.03;98492.00;4987377;27;98057;-71
2023/10/20 00:35:09;;;;;;;;;;;;;;;12.16;50.38;98482.31;5005832;27;98591;-64
2023/10/20 00:37:37;;;;;;;;;;;;;;;12.16;50.20;98483.13;4969184;27;98830;-70
2023/10/20 00:40:10;;;;;;;;;;;;;;;12.16;50.06;98471.53;4985960;27;98146;-64
2023/10/20 00:42:37;;;;;;;;;;;;;;;12.16;50.08;98483.13;4980739;27;98580;-71
2023/10/20 00:45:05;;;;;;;;;;;;;;;12.16;50.00;98479.63;5001591;27;101242;-65
2023/10/20 00:47:32;;;;;;;;;;;;;;;12.16;50.32;98479.63;4998612;27;97984;-70
2023/10/20 00:49:58;;;;;;;;;;;;;;;12.16;50.25;98482.31;4999810;27;98427;-71
2023/10/20 00:52:25;;;;;;;;;;;;;;;12.15;49.97;98464.56;5000567;27;99892;-64
2023/10/20 00:54:51;;;;;;;;;;;;;;;12.15;50.13;98465.34;4981053;27;98142;-64
2023/10/20 00:57:18;;;;;;;;;;;;;;;12.15;50.15;98462.63;5011096;27;98401;-71
2023/10/20 00:59:45;;;;;;;;;;;;;;;12.14;50.06;98461.03;4975954;27;98414;-64
2023/10/20 01:02:12;;;;;;;;;;;;;;;12.13;50.23;98459.44;5002227;27;98453;-64
2023/10/20 01:04:41;;;;;;;;;;;;;;;12.14;50.28;98447.53;5012457;27;98272;-64
2023/10/20 01:07:08;;;;;;;;;;;;;;;12.14;50.09;98446.75;4961067;27;98237;-64
2023/10/20 01:09:34;;;;;;;;;;;;;;;12.13;50.14;98445.94;4997099;27;98372;-71
2023/10/20 01:12:03;;;;;;;;;;;;;;;12.14;50.21;98454.84;4987045;27;98169;-64
2023/10/20 01:14:30;;;;;;;;;;;;;;;12.13;50.22;98454.06;4998515;27;98054;-64
2023/10/20 01:16:57;;;;;;;;;;;;;;;12.13;50.38;98450.56;4968100;27;98249;-71
2023/10/20 01:19:23;;;;;;;;;;;;;;;12.13;50.24;98456.75;5003824;27;100688;-72
2023/10/20 01:21:49;;;;;;;;;;;;;;;12.12;50.03;98452.47;5005116;27;99013;-70
2023/10/20 01:24:16;;;;;;;;;;;;;;;12.13;50.32;98443.25;5004001;27;99328;-71
2023/10/20 01:26:43;;;;;;;;;;;;;;;12.13;50.18;98435.16;5004233;27;99293;-71
2023/10/20 01:29:12;;;;;;;;;;;;;;;12.11;50.13;98432.00;4987631;27;98988;-70
2023/10/20 01:31:39;;;;;;;;;;;;;;;12.12;50.17;98427.38;4980829;27;98309;-71
2023/10/20 01:34:05;;;;;;;;;;;;;;;12.12;50.30;98425.47;4986778;27;98291;-71
2023/10/20 01:36:35;;;;;;;;;;;;;;;12.11;50.28;98412.31;4969257;27;98724;-64
2023/10/20 01:39:02;;;;;;;;;;;;;;;12.13;50.11;98426.25;4997778;27;98280;-71
2023/10/20 01:41:29;;;;;;;;;;;;;;;12.11;50.11;98413.09;4964864;27;99194;-71
2023/10/20 01:43:56;;;;;;;;;;;;;;;12.11;50.15;98405.00;4978117;27;98791;-64
2023/10/20 01:46:23;;;;;;;;;;;;;;;12.11;50.11;98404.19;4963932;27;98548;-71
2023/10/20 01:48:51;;;;;;;;;;;;;;;12.11;50.09;98406.91;4968082;27;98112;-64
2023/10/20 01:51:18;;;;;;;;;;;;;;;12.13;50.20;98399.25;4998488;27;98977;-71
2023/10/20 01:53:45;;;;;;;;;;;;;;;12.11;50.21;98401.50;4999025;27;99510;-70
2023/10/20 01:56:13;;;;;;;;;;;;;;;12.10;50.10;98386.41;4990744;27;98290;-71
2023/10/20 01:58:39;;;;;;;;;;;;;;;12.10;50.14;98375.59;4999115;27;98069;-64
2023/10/20 02:01:09;;;;;;;;;;;;;;;12.10;50.08;98376.38;4962891;27;99744;-64
2023/10/20 02:03:36;;;;;;;;;;;;;;;12.10;50.34;98378.28;5016461;27;98154;-71
2023/10/20 02:06:04;;;;;;;;;;;;;;;12.09;50.17;98368.63;4985379;27;98314;-64
2023/10/20 02:08:34;;;;;;;;;;;;;;;12.09;50.30;98372.09;4998305;27;100354;-64
2023/10/20 02:11:03;;;;;;;;;;;;;;;12.09;50.34;98364.00;4985153;27;97960;-64
2023/10/20 02:13:30;;;;;;;;;;;;;;;12.08;50.12;98359.72;4969366;27;98244;-64
2023/10/20 02:15:59;;;;;;;;;;;;;;;12.08;50.29;98357.03;4968137;27;99358;-71
2023/10/20 02:18:26;;;;;;;;;;;;;;;12.06;50.22;98372.75;4982063;27;99926;-71
2023/10/20 02:21:05;;;;;;;;;;;;;;;12.08;50.26;98377.84;4966384;27;99281;-64
2023/10/20 02:23:32;;;;;;;;;;;;;;;12.08;50.28;98369.75;5001717;27;98576;-64
2023/10/20 02:26:00;;;;;;;;;;;;;;;12.06;50.29;98364.66;5000553;27;100115;-64
2023/10/20 02:28:27;;;;;;;;;;;;;;;12.06;50.36;98363.88;4965810;27;98823;-64
2023/10/20 02:30:57;;;;;;;;;;;;;;;12.06;50.06;98361.94;5017154;27;98389;-63
2023/10/20 02:33:23;;;;;;;;;;;;;;;12.05;50.22;98357.69;5011384;27;98946;-71
2023/10/20 02:35:49;;;;;;;;;;;;;;;12.06;50.37;98356.56;4980081;27;98546;-71
2023/10/20 02:38:17;;;;;;;;;;;;;;;12.06;50.23;98350.38;5012383;27;98015;-63
2023/10/20 02:40:54;;;;;;;;;;;;;;;12.04;50.30;98348.78;4971222;27;98172;-64
2023/10/20 02:43:23;;;;;;;;;;;;;;;12.04;50.29;98343.38;4980173;27;97947;-64
2023/10/20 02:45:51;;;;;;;;;;;;;;;12.04;50.29;98350.69;4999591;27;98093;-64
2023/10/20 02:48:21;;;;;;;;;;;;;;;12.03;50.29;98344.50;5000880;27;98924;-64
2023/10/20 02:50:49;;;;;;;;;;;;;;;12.03;50.23;98333.72;5010027;27;98220;-64
2023/10/20 02:53:16;;;;;;;;;;;;;;;12.03;50.21;98332.94;5001178;27;98843;-64
2023/10/20 02:55:42;;;;;;;;;;;;;;;12.02;50.32;98332.16;4981182;27;98468;-71
2023/10/20 02:58:13;;;;;;;;;;;;;;;12.02;50.17;98334.03;4980477;27;98546;-64
2023/10/20 03:00:46;;;;;;;;;;;;;;;12.02;50.33;98334.84;4987937;27;99628;-64
2023/10/20 03:03:13;;;;;;;;;;;;;;;12.02;50.26;98326.75;4987563;27;97990;-71
2023/10/20 03:05:41;;;;;;;;;;;;;;;12.01;50.33;98335.94;5002895;27;98418;-65
2023/10/20 03:08:08;;;;;;;;;;;;;;;12.02;50.31;98334.84;5000035;27;99374;-64
2023/10/20 03:10:35;;;;;;;;;;;;;;;12.01;50.46;98330.53;4998480;27;98465;-64
2023/10/20 03:13:02;;;;;;;;;;;;;;;11.99;50.27;98322.00;4983266;27;98958;-71
2023/10/20 03:15:29;;;;;;;;;;;;;;;12.01;50.26;98327.06;4967842;27;99403;-64
2023/10/20 03:17:56;;;;;;;;;;;;;;;11.99;50.48;98324.69;4984411;27;100099;-71
2023/10/20 03:20:28;;;;;;;;;;;;;;;11.99;50.27;98326.59;4983705;27;98631;-64
2023/10/20 03:22:58;;;;;;;;;;;;;;;11.99;50.26;98334.69;4987259;27;98597;-64
2023/10/20 03:25:26;;;;;;;;;;;;;;;11.98;50.30;98327.69;4997786;27;98499;-71
2023/10/20 03:27:53;;;;;;;;;;;;;;;11.98;50.42;98328.50;5002442;27;98199;-64
2023/10/20 03:30:19;;;;;;;;;;;;;;;11.97;50.29;98324.22;4982366;27;97892;-71
2023/10/20 03:32:52;;;;;;;;;;;;;;;11.96;50.27;98319.94;5002343;27;98546;-64
2023/10/20 03:35:19;;;;;;;;;;;;;;;11.96;50.36;98313.75;4996641;27;99008;-64
2023/10/20 03:37:45;;;;;;;;;;;;;;;11.94;50.25;98314.06;5013967;27;98863;-63
2023/10/20 03:40:16;;;;;;;;;;;;;;;11.91;50.34;98308.56;5018182;27;99555;-71
2023/10/20 03:42:43;;;;;;;;;;;;;;;11.89;50.30;98308.88;5003355;27;97882;-71
2023/10/20 03:45:10;;;;;;;;;;;;;;;11.87;50.25;98304.91;5005716;27;98451;-71
2023/10/20 03:47:43;;;;;;;;;;;;;;;11.86;50.35;98308.72;4988584;27;98484;-71
2023/10/20 03:50:15;;;;;;;;;;;;;;;11.82;50.34;98297.75;5005606;27;98063;-64
2023/10/20 03:52:45;;;;;;;;;;;;;;;11.80;50.19;98287.31;5004205;27;98446;-64
2023/10/20 03:55:15;;;;;;;;;;;;;;;11.79;50.32;98288.44;5003044;27;99454;-64
2023/10/20 03:57:44;;;;;;;;;;;;;;;11.77;50.38;98296.03;5002771;27;98017;-64
2023/10/20 04:00:17;;;;;;;;;;;;;;;11.76;50.45;98318.75;4977141;27;100688;-64
2023/10/20 04:02:47;;;;;;;;;;;;;;;11.74;50.45;98326.38;5014083;27;99267;-71
2023/10/20 04:05:16;;;;;;;;;;;;;;;11.73;50.21;98326.72;5011009;27;99387;-64
2023/10/20 04:07:43;;;;;;;;;;;;;;;11.72;50.46;98323.22;4968756;27;98272;-71
2023/10/20 04:10:10;;;;;;;;;;;;;;;11.71;50.32;98307.34;4974184;27;98369;-71
2023/10/20 04:12:44;;;;;;;;;;;;;;;11.69;50.52;98309.59;5000554;27;98446;-70
2023/10/20 04:15:15;;;;;;;;;;;;;;;11.68;50.37;98313.41;5011154;27;98193;-64
2023/10/20 04:17:51;;;;;;;;;;;;;;;11.67;50.47;98307.22;5002765;27;99639;-63
2023/10/20 04:20:26;;;;;;;;;;;;;;;11.66;50.45;98296.75;4981198;27;97877;-64
2023/10/20 04:22:52;;;;;;;;;;;;;;;11.65;50.24;98293.25;5003747;27;98733;-70
2023/10/20 04:25:19;;;;;;;;;;;;;;;11.63;50.18;98279.31;4999857;27;99037;-71
2023/10/20 04:57:53;;;;;;;;;;;;;;;11.52;50.32;98264.63;4996262;27;100197;-71
2023/10/20 05:10:35;;;;;;;;;;;;;;;11.48;50.59;98250.19;4978793;27;100562;-63
2023/10/20 05:13:02;;;;;;;;;;;;;;;11.45;50.47;98238.16;4962368;27;101140;-71
2023/10/20 05:15:36;;;;;;;;;;;;;;;11.45;50.58;98251.63;4993657;27;98816;-63
2023/10/20 05:18:02;;;;;;;;;;;;;;;11.45;50.63;98251.63;5011659;27;98393;-64
2023/10/20 05:20:29;;;;;;;;;;;;;;;11.44;50.24;98241.97;4978993;27;98208;-67
2023/10/20 05:22:56;;;;;;;;;;;;;;;11.43;50.53;98237.66;4994796;27;98042;-71
2023/10/20 05:25:23;;;;;;;;;;;;;;;11.43;50.38;98229.56;4981801;27;98008;-63
2023/10/20 05:27:50;;;;;;;;;;;;;;;11.42;50.54;98222.59;4978354;27;101413;-64
2023/10/20 05:30:18;;;;;;;;;;;;;;;11.42;50.23;98213.72;4995289;27;101766;-63
2023/10/20 05:32:46;;;;;;;;;;;;;;;11.42;50.43;98221.81;4987214;27;100212;-63
2023/10/20 05:35:13;;;;;;;;;;;;;;;11.41;50.52;98223.72;4982981;27;98212;-71
2023/10/20 05:37:41;;;;;;;;;;;;;;;11.40;50.40;98205.97;4983079;27;99618;-63
2023/10/20 05:40:09;;;;;;;;;;;;;;;11.39;50.68;98204.38;5014887;27;99925;-63
2023/10/20 05:42:37;;;;;;;;;;;;;;;11.40;50.11;98207.88;4986658;27;98195;-63
2023/10/20 05:45:17;;;;;;;;;;;;;;;11.39;50.29;98217.06;4968844;27;99420;-63
2023/10/20 05:47:44;;;;;;;;;;;;;;;11.39;50.45;98217.06;4970518;27;98238;-64
2023/10/20 05:50:10;;;;;;;;;;;;;;;11.38;50.33;98216.28;4970985;27;98009;-71
2023/10/20 05:52:39;;;;;;;;;;;;;;;11.39;50.51;98225.94;4981530;27;98279;-71
2023/10/20 05:55:06;;;;;;;;;;;;;;;11.39;50.33;98230.56;4957793;27;98839;-70
2023/10/20 05:57:33;;;;;;;;;;;;;;;11.38;50.47;98218.97;4996515;27;102265;-71
2023/10/20 06:00:00;;;;;;;;;;;;;;;11.37;50.60;98230.09;4980280;27;98001;-63
2023/10/20 06:02:27;;;;;;;;;;;;;;;11.37;50.56;98228.19;4986190;27;98010;-70
2023/10/20 06:04:57;;;;;;;;;;;;;;;11.36;50.47;98215.84;4998355;27;98468;-63
2023/10/20 06:07:23;;;;;;;;;;;;;;;11.38;50.53;98212.81;5003926;27;99118;-71
2023/10/20 06:09:51;;;;;;;;;;;;;;;11.37;50.51;98209.31;5000772;27;98015;-63
2023/10/20 06:12:19;;;;;;;;;;;;;;;11.36;50.44;98207.75;4986989;27;99414;-63
2023/10/20 06:14:47;;;;;;;;;;;;;;;11.37;50.31;98219.31;4975950;27;98501;-64
2023/10/20 06:17:17;;;;;;;;;;;;;;;11.36;50.58;98205.06;4984960;27;98367;-71
2023/10/20 06:19:46;;;;;;;;;;;;;;;11.37;50.36;98203.94;4981436;27;99252;-63
2023/10/20 06:22:13;;;;;;;;;;;;;;;11.37;50.69;98195.03;4986556;27;98607;-63
2023/10/20 06:24:43;;;;;;;;;;;;;;;11.38;50.35;98196.63;4983304;27;98223;-71
2023/10/20 06:27:11;;;;;;;;;;;;;;;11.37;50.32;98174.25;4984700;27;98523;-70
2023/10/20 06:29:46;;;;;;;;;;;;;;;11.38;50.41;98185.81;4995941;27;98133;-71
2023/10/20 06:32:40;;;;;;;;;;;;;;;11.36;50.41;98174.56;5001938;27;98390;-63
2023/10/20 06:35:09;;;;;;;;;;;;;;;11.44;50.53;98179.13;4996742;27;98138;-64
2023/10/20 06:37:41;;;;;;;;;;;;;;;11.50;50.48;98172.41;4990861;27;98602;-64
2023/10/20 06:40:15;;;;;;;;;;;;;;;11.60;50.47;98177.44;4985829;27;98059;-70
2023/10/20 06:42:45;;;;;;;;;;;;;;;11.67;50.45;98184.97;5007074;27;98165;-64
2023/10/20 06:45:15;;;;;;;;;;;;;;;11.72;50.49;98179.41;4985600;27;98192;-64
2023/10/20 06:47:42;;;;;;;;;;;;;;;11.77;50.44;98176.50;4970297;27;98248;-71
2023/10/20 06:50:12;;;;;;;;;;;;;;;11.79;50.33;98175.06;5004120;27;100039;-64
2023/10/20 06:52:39;;;;;;;;;;;;;;;11.83;50.42;98175.22;4984345;27;99417;-64
2023/10/20 06:55:07;;;;;;;;;;;;;;;11.85;50.55;98174.88;4989718;27;98008;-64
2023/10/20 06:57:38;;;;;;;;;;;;;;;11.87;50.37;98161.84;4997849;27;98102;-64
2023/10/20 07:00:16;;;;;;;;;;;;;;;11.88;50.44;98155.34;4986347;27;98067;-72
2023/10/20 07:02:42;;;;;;;;;;;;;;;11.88;50.70;98153.41;4991254;27;98114;-64
2023/10/20 07:05:10;;;;;;;;;;;;;;;11.91;50.41;98149.28;4983735;27;98311;-65
2023/10/20 07:07:36;;;;;;;;;;;;;;;11.91;50.47;98150.06;5001184;27;98301;-71
2023/10/20 07:10:05;;;;;;;;;;;;;;;11.93;50.51;98136.22;5002812;27;99149;-72
2023/10/20 07:12:32;;;;;;;;;;;;;;;11.94;50.57;98133.19;4991860;27;98972;-64
2023/10/20 07:14:59;;;;;;;;;;;;;;;11.95;50.54;98118.59;4976473;27;100261;-72
2023/10/20 07:17:27;;;;;;;;;;;;;;;11.95;50.51;98115.09;4985437;27;98426;-72
2023/10/20 07:19:53;;;;;;;;;;;;;;;11.96;50.53;98122.06;4984138;27;100638;-71
2023/10/20 07:22:21;;;;;;;;;;;;;;;11.95;50.51;98117.78;4962077;27;97828;-72
2023/10/20 07:24:48;;;;;;;;;;;;;;;11.95;50.55;98123.97;4997991;27;98214;-64
2023/10/20 07:27:17;;;;;;;;;;;;;;;11.95;50.77;98128.59;5017431;27;98380;-71
2023/10/20 07:29:44;;;;;;;;;;;;;;;11.95;50.56;98125.91;4984390;27;98441;-71
2023/10/20 07:32:12;;;;;;;;;;;;;;;11.95;50.54;98107.78;4985499;27;98531;-71
2023/10/20 07:34:38;;;;;;;;;;;;;;;11.97;50.26;98096.63;4982689;27;99445;-71
2023/10/20 07:37:06;;;;;;;;;;;;;;;11.98;50.27;98096.28;4997778;27;98592;-65
2023/10/20 07:39:35;;;;;;;;;;;;;;;12.01;50.31;98094.84;4973623;27;97998;-64
2023/10/20 07:42:03;;;;;;;;;;;;;;;12.00;50.46;98094.06;5000786;27;98421;-71
2023/10/20 07:44:29;;;;;;;;;;;;;;;12.01;50.58;98089.44;4985783;27;98419;-71
2023/10/20 07:46:56;;;;;;;;;;;;;;;12.03;50.48;98090.72;4972022;27;99003;-71
2023/10/20 07:49:24;;;;;;;;;;;;;;;12.06;50.31;98078.44;4983495;27;100820;-64
2023/10/20 07:51:52;;;;;;;;;;;;;;;12.06;50.46;98080.34;4985324;27;99542;-64
2023/10/20 07:54:20;;;;;;;;;;;;;;;12.05;50.32;98090.34;4967993;27;97967;-71
2023/10/20 07:56:47;;;;;;;;;;;;;;;12.05;50.52;98082.25;5003767;27;98282;-71
2023/10/20 07:59:17;;;;;;;;;;;;;;;12.07;50.60;98076.53;4982636;27;99090;-64
2023/10/20 08:01:45;;;;;;;;;;;;;;;12.08;50.48;98062.69;5000934;27;98043;-64
2023/10/20 08:04:12;;;;;;;;;;;;;;;12.10;50.31;98071.22;4987054;27;98481;-71
2023/10/20 08:06:40;;;;;;;;;;;;;;;12.14;50.44;98076.75;5004130;27;101065;-64
2023/10/20 08:09:12;;;;;;;;;;;;;;;12.18;50.17;98085.75;4991015;27;99565;-71
2023/10/20 08:11:42;;;;;;;;;;;;;;;12.19;50.32;98076.56;4972567;27;99742;-71
2023/10/20 08:14:09;;;;;;;;;;;;;;;12.19;50.26;98079.25;4983520;27;99563;-64
2023/10/20 08:16:36;;;;;;;;;;;;;;;12.19;50.22;98088.16;4981054;27;98135;-71
2023/10/20 08:19:02;;;;;;;;;;;;;;;12.20;50.37;98080.84;4987964;27;98105;-64
2023/10/20 08:21:30;;;;;;;;;;;;;;;12.18;50.30;98078.47;4966572;27;98038;-71
2023/10/20 08:24:00;;;;;;;;;;;;;;;12.17;50.29;98087.69;4987639;27;98562;-71
2023/10/20 08:26:27;;;;;;;;;;;;;;;12.17;50.46;98071.47;4983717;27;97934;-64
2023/10/20 08:28:54;;;;;;;;;;;;;;;12.17;50.37;98065.28;4963942;27;100127;-71
2023/10/20 08:31:21;;;;;;;;;;;;;;;12.16;50.35;98063.72;4968675;27;98128;-64
2023/10/20 08:33:52;;;;;;;;;;;;;;;12.17;50.45;98074.19;4973228;27;98398;-64
2023/10/20 08:36:22;;;;;;;;;;;;;;;12.15;50.30;98076.44;4985986;27;98713;-71
2023/10/20 08:38:50;;;;;;;;;;;;;;;12.15;50.39;98060.25;4979882;27;98548;-64
2023/10/20 08:41:19;;;;;;;;;;;;;;;12.15;50.44;98049.44;4987060;27;98100;-64
2023/10/20 08:43:47;;;;;;;;;;;;;;;12.16;50.40;98042.13;4983408;27;98739;-65
2023/10/20 08:46:14;;;;;;;;;;;;;;;12.15;50.24;98048.66;4999658;27;98857;-71
2023/10/20 08:48:47;;;;;;;;;;;;;;;12.16;50.53;98061.03;4969298;27;97946;-64
2023/10/20 08:51:14;;;;;;;;;;;;;;;12.15;50.43;98048.66;4983129;27;99859;-71
2023/10/20 08:53:42;;;;;;;;;;;;;;;12.13;50.32;98051.66;4984788;27;97992;-64
2023/10/20 08:56:09;;;;;;;;;;;;;;;12.15;50.51;98049.44;4968583;27;98760;-64
2023/10/20 08:58:36;;;;;;;;;;;;;;;12.14;50.32;98026.22;4968607;27;98457;-65
2023/10/20 09:01:07;;;;;;;;;;;;;;;12.14;50.50;98036.25;4997946;27;99695;-64
2023/10/20 09:03:41;;;;;;;;;;;;;;;12.15;50.31;98022.44;4972117;27;99447;-71
2023/10/20 09:06:11;;;;;;;;;;;;;;;12.14;50.26;98031.63;5001576;27;100536;-64
2023/10/20 09:08:38;;;;;;;;;;;;;;;12.13;50.50;98026.59;4968550;27;98949;-71
2023/10/20 09:11:12;;;;;;;;;;;;;;;12.13;50.57;98043.56;4997974;27;98522;-71
2023/10/20 09:13:40;;;;;;;;;;;;;;;12.14;50.49;98031.63;4974388;27;98326;-64
2023/10/20 09:16:11;;;;;;;;;;;;;;;12.15;50.34;98008.16;4967148;27;98296;-64
2023/10/20 09:18:44;;;;;;;;;;;;;;;12.17;50.51;98012.06;4999269;27;98103;-64
2023/10/20 09:21:18;;;;;;;;;;;;;;;12.17;50.39;98008.59;4997250;27;99709;-64
2023/10/20 09:24:14;;;;;;;;;;;;;;;12.17;50.30;97995.06;4985830;27;98114;-64
2023/10/20 09:26:41;;;;;;;;;;;;;;;12.18;50.43;97991.25;4997425;27;98569;-64
2023/10/20 09:29:09;;;;;;;;;;;;;;;12.17;50.34;97990.47;4980136;27;101267;-64
2023/10/20 09:31:37;;;;;;;;;;;;;;;12.18;50.36;97959.66;4999383;27;98200;-64
2023/10/20 09:34:06;;;;;;;;;;;;;;;12.21;50.39;97941.97;4986893;27;99340;-72
2023/10/20 09:36:33;;;;;;;;;;;;;;;12.23;50.34;97931.63;4968411;27;99038;-72
2023/10/20 09:39:00;;;;;;;;;;;;;;;12.25;50.29;97937.47;4968982;27;98705;-72
2023/10/20 09:41:31;;;;;;;;;;;;;;;12.28;50.33;97931.38;4982547;27;98505;-64
2023/10/20 09:44:07;;;;;;;;;;;;;;;12.30;50.43;97931.84;5001328;27;99431;-72
2023/10/20 09:46:54;;;;;;;;;;;;;;;12.32;50.23;97934.97;5004634;27;98374;-64
2023/10/20 09:49:22;;;;;;;;;;;;;;;12.33;50.35;97950.06;5009654;27;98755;-71
2023/10/20 09:51:51;;;;;;;;;;;;;;;12.38;50.17;97959.84;5000150;27;99676;-71
2023/10/20 09:54:19;;;;;;;;;;;;;;;12.37;50.33;97961.75;4971573;27;99860;-71
2023/10/20 09:56:49;;;;;;;;;;;;;;;12.38;50.33;97959.84;5004415;27;98459;-64
2023/10/20 09:59:21;;;;;;;;;;;;;;;12.37;50.15;97959.06;5000797;27;98889;-64
2023/10/20 10:01:48;;;;;;;;;;;;;;;12.39;50.26;97943.31;5005100;27;98695;-71
2023/10/20 10:04:22;;;;;;;;;;;;;;;12.40;50.42;97938.69;4975863;27;97895;-71
2023/10/20 10:06:49;;;;;;;;;;;;;;;12.40;50.27;97939.47;4971884;27;99788;-72
2023/10/20 10:09:15;;;;;;;;;;;;;;;12.41;50.44;97932.16;5002444;27;98101;-71
2023/10/20 10:11:45;;;;;;;;;;;;;;;12.41;50.29;97930.22;5003538;27;98096;-71
2023/10/20 10:14:22;;;;;;;;;;;;;;;12.40;50.32;97923.25;4988141;27;98063;-65
2023/10/20 10:17:01;;;;;;;;;;;;;;;12.40;50.32;97914.38;4989321;27;98503;-72
2023/10/20 10:19:28;;;;;;;;;;;;;;;12.37;50.53;97899.63;5003812;27;97931;-64
2023/10/20 10:21:57;;;;;;;;;;;;;;;12.38;50.50;97903.09;4970073;27;98078;-64
2023/10/20 10:24:25;;;;;;;;;;;;;;;12.36;50.35;97918.88;4971689;27;98311;-64
2023/10/20 10:26:57;;;;;;;;;;;;;;;12.35;50.47;97922.72;4991054;27;100471;-64
2023/10/20 10:30:00;;;;;;;;;;;;;;;12.32;50.49;97932.28;5003715;27;98254;-64
2023/10/20 10:32:32;;;;;;;;;;;;;;;12.31;50.43;97925.31;5026983;27;100997;-64
2023/10/20 10:34:59;;;;;;;;;;;;;;;12.31;50.56;97921.81;5002667;27;99308;-71
2023/10/20 10:37:34;;;;;;;;;;;;;;;12.29;50.56;97930.25;4969390;27;98360;-64
2023/10/20 10:40:13;;;;;;;;;;;;;;;12.28;50.53;97934.88;4984113;27;102167;-71
2023/10/20 10:42:48;;;;;;;;;;;;;;;12.28;50.50;97944.88;4990131;27;98322;-66
2023/10/20 10:45:29;;;;;;;;;;;;;;;12.27;50.42;97954.13;5020268;27;98226;-70
2023/10/20 10:48:11;;;;;;;;;;;;;;;12.26;50.56;97960.63;4986273;27;98347;-71
2023/10/20 10:50:42;;;;;;;;;;;;;;;12.24;50.49;97962.91;5006295;27;98227;-71
2023/10/20 10:53:11;;;;;;;;;;;;;;;12.22;50.45;97965.94;4971158;27;98063;-64
2023/10/20 10:55:38;;;;;;;;;;;;;;;12.21;50.56;97967.06;4987403;27;98471;-72
2023/10/20 10:58:10;;;;;;;;;;;;;;;12.23;50.56;97966.72;4970897;27;98332;-64
2023/10/20 11:00:36;;;;;;;;;;;;;;;12.23;50.41;97962.13;4970515;27;99648;-72
2023/10/20 11:03:03;;;;;;;;;;;;;;;12.25;50.45;97964.47;4970382;27;99807;-73
2023/10/20 11:05:30;;;;;;;;;;;;;;;12.26;50.61;97971.44;4984819;27;98215;-73
2023/10/20 11:08:02;;;;;;;;;;;;;;;12.27;50.45;97954.13;4986916;27;98290;-64
2023/10/20 11:10:30;;;;;;;;;;;;;;;12.31;50.36;97952.31;5004358;27;98502;-64
2023/10/20 11:12:57;;;;;;;;;;;;;;;12.33;50.33;97954.69;4999279;27;98130;-72
2023/10/20 11:15:29;;;;;;;;;;;;;;;12.34;50.45;97959.75;5003077;27;99728;-64
2023/10/20 11:17:59;;;;;;;;;;;;;;;12.34;50.41;97961.66;5004456;27;98103;-73
2023/10/20 11:20:29;;;;;;;;;;;;;;;12.34;50.38;97970.56;5017313;27;97894;-72
2023/10/20 11:22:56;;;;;;;;;;;;;;;12.35;50.36;97977.53;5001412;27;99312;-64
2023/10/20 11:25:22;;;;;;;;;;;;;;;12.34;50.33;97978.66;4988149;27;98839;-72
2023/10/20 11:27:56;;;;;;;;;;;;;;;12.34;50.62;97975.97;4971012;27;98455;-64
2023/10/20 11:30:41;;;;;;;;;;;;;;;12.33;50.55;97970.88;5001292;27;99108;-64
2023/10/20 11:33:10;;;;;;;;;;;;;;;12.31;50.59;97970.44;4983405;27;99520;-72
2023/10/20 11:35:36;;;;;;;;;;;;;;;12.29;50.49;97963.44;4997813;27;98075;-72
2023/10/20 11:38:05;;;;;;;;;;;;;;;12.30;50.35;97966.97;4985010;27;100018;-64
2023/10/20 11:40:31;;;;;;;;;;;;;;;12.28;50.45;97963.81;4971023;27;98070;-64
2023/10/20 11:42:59;;;;;;;;;;;;;;;12.27;50.70;97956.81;5001278;27;97989;-64
2023/10/20 11:45:25;;;;;;;;;;;;;;;12.25;50.47;97967.94;4985340;27;98237;-72
2023/10/20 11:47:54;;;;;;;;;;;;;;;12.26;50.61;97955.22;5010900;27;98405;-64
2023/10/20 11:50:21;;;;;;;;;;;;;;;12.27;50.58;97951.44;5003771;27;97850;-72
2023/10/20 11:52:48;;;;;;;;;;;;;;;12.28;50.39;97958.41;4995806;27;99159;-64
2023/10/20 11:55:15;;;;;;;;;;;;;;;12.26;50.62;97942.53;4981364;27;98416;-72
2023/10/20 11:57:42;;;;;;;;;;;;;;;12.28;50.61;97939.50;4966576;27;98454;-72
2023/10/20 12:00:13;;;;;;;;;;;;;;;12.31;50.51;97924.53;5000263;27;99301;-64
2023/10/20 12:02:40;;;;;;;;;;;;;;;12.35;50.43;97920.81;4987000;27;98616;-71
2023/10/20 12:05:08;;;;;;;;;;;;;;;12.37;50.34;97918.53;4981195;27;99755;-64
2023/10/20 12:07:34;;;;;;;;;;;;;;;12.38;50.47;97914.72;4988316;27;98671;-69
2023/10/20 12:10:05;;;;;;;;;;;;;;;12.38;50.46;97925.53;4971550;27;99614;-64
2023/10/20 12:12:33;;;;;;;;;;;;;;;12.38;50.34;97916.63;4997349;27;98157;-64
2023/10/20 12:15:02;;;;;;;;;;;;;;;12.39;50.49;97910.09;5006646;27;98031;-64
2023/10/20 12:17:28;;;;;;;;;;;;;;;12.40;50.48;97896.25;4988761;27;98324;-72
2023/10/20 12:19:55;;;;;;;;;;;;;;;12.38;50.36;97878.78;4989859;27;98715;-64
2023/10/20 12:22:23;;;;;;;;;;;;;;;12.40;50.44;97871.94;4969329;27;98283;-64
2023/10/20 12:24:51;;;;;;;;;;;;;;;12.41;50.66;97870.81;4988765;27;98152;-64
2023/10/20 12:27:19;;;;;;;;;;;;;;;12.41;50.31;97851.88;5003618;27;98938;-72
2023/10/20 12:29:46;;;;;;;;;;;;;;;12.40;50.32;97855.72;4972723;27;98076;-64
2023/10/20 12:32:13;;;;;;;;;;;;;;;12.40;50.36;97846.84;4982230;27;100056;-64
2023/10/20 12:34:39;;;;;;;;;;;;;;;12.38;50.38;97847.19;4987087;27;98368;-64
2023/10/20 12:37:06;;;;;;;;;;;;;;;12.36;50.61;97841.34;4986253;27;99964;-73
2023/10/20 12:39:33;;;;;;;;;;;;;;;12.37;50.66;97836.72;4994660;27;98947;-73
2023/10/20 12:42:04;;;;;;;;;;;;;;;12.36;50.55;97841.34;4968056;27;98256;-64
2023/10/20 12:44:36;;;;;;;;;;;;;;;12.34;50.67;97838.19;4993205;27;98171;-72
2023/10/20 12:47:03;;;;;;;;;;;;;;;12.33;50.60;97847.41;4989763;27;98150;-64
2023/10/20 12:49:31;;;;;;;;;;;;;;;12.31;50.73;97852.38;4984240;27;98361;-72
2023/10/20 12:51:57;;;;;;;;;;;;;;;12.29;50.66;97862.72;4983282;27;98695;-72
2023/10/20 12:54:24;;;;;;;;;;;;;;;12.27;50.62;97871.19;5016625;27;98647;-72
2023/10/20 12:56:52;;;;;;;;;;;;;;;12.27;50.66;97860.38;4968886;27;98535;-72
2023/10/20 12:59:19;;;;;;;;;;;;;;;12.26;50.70;97860.69;4989256;27;99724;-63
2023/10/20 13:01:47;;;;;;;;;;;;;;;12.25;50.45;97862.63;4984507;27;98223;-64
2023/10/20 13:04:14;;;;;;;;;;;;;;;12.23;50.72;97851.38;4997896;27;99763;-71
2023/10/20 13:06:40;;;;;;;;;;;;;;;12.21;50.73;97874.44;4984881;27;98997;-72
2023/10/20 13:09:08;;;;;;;;;;;;;;;12.20;50.56;97889.09;5001931;27;98130;-64
2023/10/20 13:11:34;;;;;;;;;;;;;;;12.19;50.87;97876.72;4989016;27;98626;-63
2023/10/20 13:14:02;;;;;;;;;;;;;;;12.18;50.60;97840.00;5004619;27;98129;-71
2023/10/20 13:16:29;;;;;;;;;;;;;;;12.16;50.60;97856.56;5019572;27;100518;-72
2023/10/20 13:18:56;;;;;;;;;;;;;;;12.15;50.75;97840.72;4985149;27;98670;-72
2023/10/20 13:21:24;;;;;;;;;;;;;;;12.15;50.57;97832.63;4996805;27;97911;-64
2023/10/20 13:23:53;;;;;;;;;;;;;;;12.14;50.65;97836.44;4977941;27;98388;-72
2023/10/20 13:26:20;;;;;;;;;;;;;;;12.13;50.61;97816.75;4999387;27;98191;-63
2023/10/20 13:28:47;;;;;;;;;;;;;;;12.13;50.76;97816.75;4996771;27;98537;-71
2023/10/20 13:31:21;;;;;;;;;;;;;;;12.13;50.64;97811.34;5017321;27;98020;-63
2023/10/20 13:33:49;;;;;;;;;;;;;;;12.12;50.70;97807.06;4995642;27;98396;-63